Time;durP1;ratioP1;P1;durP2;ratioP2;P2;SDS_P1;SDS_P2;PMS_P1;PMS_P2;Temp;Humidity;BMP_temperature;BMP_pressure;BME280_temperature;BME280_humidity;BME280_pressure;Samples;Min_cycle;Max_cycle;Signal;HPM_P1;HPM_P2
2022/12/11 00:01:33;;;;;;;;;;;1.50;99.90;;;;;;5015326;28;20031;-69
2022/12/11 00:03:59;;;;;;;;;;;;;;;;;;5014584;28;20375;-69
2022/12/11 00:06:25;;;;;;;;;;;;;;;;;;5015306;28;20287;-69
2022/12/11 00:08:52;;;;;;;;;;;1.50;99.90;;;;;;4998659;28;19982;-69
2022/12/11 00:11:18;;;;;;;;;;;1.50;99.90;;;;;;4998396;28;20008;-69
2022/12/11 00:13:44;;;;;;;;;;;;;;;;;;5032219;28;20355;-68
2022/12/11 00:16:10;;;;;;;;;;;;;;;;;;5014435;28;19921;-68
2022/12/11 00:18:36;;;;;;;;;;;;;;;;;;5014770;28;20311;-68
2022/12/11 00:21:02;;;;;;;;;;;;;;;;;;5032262;28;19929;-68
2022/12/11 00:23:28;;;;;;;;;;;;;;;;;;5014653;28;19921;-68
2022/12/11 00:25:53;;;;;;;;;;;1.20;99.90;;;;;;5013707;28;19927;-69
2022/12/11 00:28:20;;;;;;;;;;;1.50;99.90;;;;;;5032413;28;19920;-68
2022/12/11 00:30:45;;;;;;;;;;;1.60;99.90;;;;;;5014849;28;19922;-68
2022/12/11 00:33:11;;;;;;;;;;;;;;;;;;5014461;28;19928;-69
2022/12/11 00:35:37;;;;;;;;;;;;;;;;;;5031376;28;19932;-68
2022/12/11 00:38:03;;;;;;;;;;;;;;;;;;5014472;28;19921;-69
2022/12/11 00:40:28;;;;;;;;;;;1.60;99.90;;;;;;5014619;28;19925;-68
2022/12/11 00:42:54;;;;;;;;;;;1.40;99.90;;;;;;5014305;28;19921;-69
2022/12/11 00:45:20;;;;;;;;;;;;;;;;;;5031371;28;20417;-68
2022/12/11 00:47:46;;;;;;;;;;;;;;;;;;5014430;28;20338;-69
2022/12/11 00:50:12;;;;;;;;;;;;;;;;;;5014343;28;19925;-68
2022/12/11 00:52:39;;;;;;;;;;;;;;;;;;5091313;22;20126;-71
2022/12/11 00:55:05;;;;;;;;;;;1.50;99.90;;;;;;5093441;28;19923;-71
2022/12/11 00:57:31;;;;;;;;;;;;;;;;;;5112566;28;19930;-71
2022/12/11 00:59:56;;;;;;;;;;;;;;;;;;5112308;28;19939;-71
2022/12/11 01:02:22;;;;;;;;;;;;;;;;;;5113174;28;20471;-71
2022/12/11 01:04:51;;;;;;;;;;;1.50;99.90;;;;;;5115222;28;19919;-71
2022/12/11 01:07:17;;;;;;;;;;;;;;;;;;5116916;28;19920;-71
2022/12/11 01:12:27;;;;;;;;;;;1.40;99.90;;;;;;5116189;28;20061;-68
2022/12/11 01:14:53;;;;;;;;;;;1.50;99.90;;;;;;5097248;28;19920;-69
2022/12/11 01:17:18;;;;;;;;;;;1.50;99.90;;;;;;5115216;28;19930;-69
2022/12/11 01:19:44;;;;;;;;;;;1.50;99.90;;;;;;5116568;28;19927;-70
2022/12/11 01:22:10;;;;;;;;;;;;;;;;;;5116394;28;20014;-70
2022/12/11 01:24:36;;;;;;;;;;;;;;;;;;5115603;28;19919;-69
2022/12/11 01:27:02;;;;;;;;;;;;;;;;;;5097981;28;19973;-70
2022/12/11 01:29:28;;;;;;;;;;;;;;;;;;5098091;28;19928;-70
2022/12/11 01:31:54;;;;;;;;;;;;;;;;;;5095172;28;20586;-71
2022/12/11 01:34:20;;;;;;;;;;;1.50;99.90;;;;;;5095059;28;20065;-72
2022/12/11 01:36:45;;;;;;;;;;;1.40;99.90;;;;;;5095659;28;19920;-70
2022/12/11 01:39:14;;;;;;;;;;;;;;;;;;5095674;28;20019;-70
2022/12/11 01:41:39;;;;;;;;;;;1.60;99.90;;;;;;5077567;28;19920;-71
2022/12/11 01:44:05;;;;;;;;;;;;;;;;;;5095073;28;20294;-72
2022/12/11 01:46:34;;;;;;;;;;;;;;;;;;5095619;28;19923;-71
2022/12/11 01:49:04;;;;;;;;;;;1.60;99.90;;;;;;5095419;28;20317;-71
2022/12/11 01:51:31;;;;;;;;;;;1.60;99.90;;;;;;5096269;28;19928;-71
2022/12/11 01:53:59;;;;;;;;;;;1.40;99.90;;;;;;5079772;28;20010;-71
2022/12/11 01:56:32;;;;;;;;;;;1.80;99.90;;;;;;5096848;28;19969;-71
2022/12/11 01:58:59;;;;;;;;;;;;;;;;;;5080108;28;19935;-71
2022/12/11 02:01:31;;;;;;;;;;;1.60;99.90;;;;;;5115780;28;19924;-72
2022/12/11 02:03:59;;;;;;;;;;;;;;;;;;5114489;28;20577;-71
2022/12/11 02:06:27;;;;;;;;;;;;;;;;;;5115864;28;19924;-72
2022/12/11 02:08:55;;;;;;;;;;;1.80;99.90;;;;;;5115866;28;19919;-72
2022/12/11 02:11:26;;;;;;;;;;;1.50;99.90;;;;;;5115036;28;19926;-72
2022/12/11 02:14:02;;;;;;;;;;;1.80;99.90;;;;;;5115067;28;19927;-70
2022/12/11 02:16:43;;;;;;;;;;;1.70;99.90;;;;;;5094014;28;19926;-74
2022/12/11 02:19:09;;;;;;;;;;;;;;;;;;5077078;28;20019;-71
2022/12/11 02:21:39;;;;;;;;;;;1.50;99.90;;;;;;5077013;28;19967;-72
2022/12/11 02:24:17;;;;;;;;;;;1.80;99.90;;;;;;5094558;28;20287;-72
2022/12/11 02:26:55;;;;;;;;;;;1.60;99.90;;;;;;5098710;28;20301;-73
2022/12/11 02:29:27;;;;;;;;;;;1.60;99.90;;;;;;5114863;28;20412;-71
2022/12/11 02:31:57;;;;;;;;;;;1.80;99.90;;;;;;5115000;28;19920;-72
2022/12/11 02:34:41;;;;;;;;;;;1.80;99.90;;;;;;5113998;28;19920;-73
2022/12/11 02:37:06;;;;;;;;;;;;;;;;;;5115648;28;20052;-72
2022/12/11 02:39:34;;;;;;;;;;;;;;;;;;5096891;28;19948;-72
2022/12/11 02:42:03;;;;;;;;;;;;;;;;;;5114914;28;19926;-73
2022/12/11 02:44:29;;;;;;;;;;;;;;;;;;5113977;28;20389;-71
2022/12/11 02:46:55;;;;;;;;;;;;;;;;;;5114423;28;19924;-72
2022/12/11 02:49:21;;;;;;;;;;;1.70;99.90;;;;;;5114997;28;19972;-71
2022/12/11 02:51:47;;;;;;;;;;;;;;;;;;5114698;28;19920;-71
2022/12/11 02:54:13;;;;;;;;;;;;;;;;;;5059621;28;20242;-72
2022/12/11 02:57:05;;;;;;;;;;;1.90;99.90;;;;;;5076221;28;20011;-71
2022/12/11 02:59:38;;;;;;;;;;;1.90;99.90;;;;;;5071980;28;20014;-72
2022/12/11 03:02:04;;;;;;;;;;;;;;;;;;5102859;28;19963;-70
2022/12/11 03:04:30;;;;;;;;;;;1.80;99.90;;;;;;5113538;28;19962;-70
2022/12/11 03:07:00;;;;;;;;;;;1.90;99.90;;;;;;5114264;28;19924;-71
2022/12/11 03:09:26;;;;;;;;;;;;;;;;;;5114153;28;20309;-71
2022/12/11 03:11:51;;;;;;;;;;;1.80;99.90;;;;;;5113990;28;19919;-71
2022/12/11 03:14:17;;;;;;;;;;;1.90;99.90;;;;;;5113656;28;19920;-71
2022/12/11 03:16:43;;;;;;;;;;;;;;;;;;5079041;28;19927;-71
2022/12/11 03:19:10;;;;;;;;;;;;;;;;;;5114215;28;19919;-71
2022/12/11 03:21:54;;;;;;;;;;;1.80;99.90;;;;;;5095659;28;19927;-71
2022/12/11 03:24:26;;;;;;;;;;;2.00;99.90;;;;;;5095049;28;19970;-71
2022/12/11 03:26:54;;;;;;;;;;;1.90;99.90;;;;;;5095332;28;20373;-71
2022/12/11 03:29:23;;;;;;;;;;;1.90;99.90;;;;;;5095775;28;19920;-71
2022/12/11 03:31:55;;;;;;;;;;;1.90;99.90;;;;;;5095810;28;20373;-71
2022/12/11 03:34:23;;;;;;;;;;;1.80;99.90;;;;;;5094973;28;19926;-71
2022/12/11 03:36:49;;;;;;;;;;;;;;;;;;5104934;28;19927;-71
2022/12/11 03:39:17;;;;;;;;;;;1.80;99.90;;;;;;5093421;28;19920;-71
2022/12/11 03:41:44;;;;;;;;;;;2.10;99.90;;;;;;5075129;28;19924;-71
2022/12/11 03:44:11;;;;;;;;;;;2.00;99.90;;;;;;5074455;28;20305;-71
2022/12/11 03:46:37;;;;;;;;;;;;;;;;;;5093234;28;19926;-71
2022/12/11 03:49:02;;;;;;;;;;;;;;;;;;5074856;28;20003;-71
2022/12/11 03:51:29;;;;;;;;;;;1.90;99.90;;;;;;5092897;28;19920;-71
2022/12/11 03:53:55;;;;;;;;;;;;;;;;;;5074029;28;19931;-71
2022/12/11 03:56:24;;;;;;;;;;;1.80;99.90;;;;;;5074645;28;20414;-71
2022/12/11 03:58:49;;;;;;;;;;;1.80;99.90;;;;;;5093072;28;19931;-71
2022/12/11 04:01:15;;;;;;;;;;;;;;;;;;5093128;28;19920;-71
2022/12/11 04:03:41;;;;;;;;;;;;;;;;;;5092744;28;20032;-72
2022/12/11 04:06:07;;;;;;;;;;;1.90;99.90;;;;;;5073738;28;19920;-71
2022/12/11 04:08:32;;;;;;;;;;;2.10;99.90;;;;;;5074673;28;19927;-71
2022/12/11 04:13:43;;;;;;;;;;;;;;;;;;5112943;28;19927;-73
2022/12/11 04:16:09;;;;;;;;;;;;;;;;;;5094150;28;19920;-70
2022/12/11 04:24:16;;;;;;;;;;;1.80;99.90;;;;;;5112169;28;19927;-70
2022/12/11 04:26:45;;;;;;;;;;;1.80;99.90;;;;;;5094516;28;19920;-71
2022/12/11 04:29:11;;;;;;;;;;;;;;;;;;5094680;28;19920;-71
2022/12/11 04:31:37;;;;;;;;;;;;;;;;;;5089136;28;19921;-71
2022/12/11 04:34:03;;;;;;;;;;;;;;;;;;5112079;28;19931;-70
2022/12/11 04:36:29;;;;;;;;;;;1.90;99.90;;;;;;5094507;28;20266;-71
2022/12/11 04:38:54;;;;;;;;;;;1.80;99.90;;;;;;5111984;28;19927;-70
2022/12/11 04:41:20;;;;;;;;;;;;;;;;;;5112496;28;19959;-70
2022/12/11 04:43:46;;;;;;;;;;;;;;;;;;5112302;28;19919;-70
2022/12/11 04:46:15;;;;;;;;;;;2.00;99.90;;;;;;5105905;28;19927;-70
2022/12/11 04:48:41;;;;;;;;;;;2.00;99.90;;;;;;5074084;28;20116;-70
2022/12/11 04:51:07;;;;;;;;;;;;;;;;;;5078032;28;20029;-71
2022/12/11 04:53:33;;;;;;;;;;;;;;;;;;5073782;28;19920;-71
2022/12/11 04:55:59;;;;;;;;;;;;;;;;;;5073316;28;20490;-70
2022/12/11 04:58:25;;;;;;;;;;;2.10;99.90;;;;;;5092123;28;19975;-71
2022/12/11 05:00:50;;;;;;;;;;;2.00;99.90;;;;;;5074027;28;20011;-70
2022/12/11 05:03:16;;;;;;;;;;;1.70;99.90;;;;;;5074165;28;20003;-70
2022/12/11 05:05:42;;;;;;;;;;;;;;;;;;5091396;28;19920;-70
2022/12/11 05:08:07;;;;;;;;;;;;;;;;;;5092232;28;20015;-71
2022/12/11 05:10:33;;;;;;;;;;;;;;;;;;5098034;28;19929;-71
2022/12/11 05:12:59;;;;;;;;;;;1.90;99.90;;;;;;5112655;28;20312;-71
2022/12/11 05:15:24;;;;;;;;;;;1.80;99.90;;;;;;5093278;28;20026;-70
2022/12/11 05:17:50;;;;;;;;;;;;;;;;;;5094057;28;19950;-70
2022/12/11 05:20:16;;;;;;;;;;;;;;;;;;5111473;28;20435;-70
2022/12/11 05:22:42;;;;;;;;;;;1.90;99.90;;;;;;5073820;28;20381;-70
2022/12/11 05:25:07;;;;;;;;;;;1.70;99.90;;;;;;5073246;28;20433;-70
2022/12/11 05:27:33;;;;;;;;;;;;;;;;;;5073769;28;19920;-71
2022/12/11 05:29:59;;;;;;;;;;;;;;;;;;5073733;28;19924;-70
2022/12/11 05:32:25;;;;;;;;;;;;;;;;;;5091696;28;19927;-70
2022/12/11 05:34:51;;;;;;;;;;;;;;;;;;5091059;28;19920;-70
2022/12/11 05:37:16;;;;;;;;;;;2.00;99.90;;;;;;5073613;28;20389;-70
2022/12/11 05:39:42;;;;;;;;;;;2.10;99.90;;;;;;5091675;28;20282;-70
2022/12/11 05:42:08;;;;;;;;;;;;;;;;;;5091759;28;19927;-70
2022/12/11 05:44:34;;;;;;;;;;;;;;;;;;5072738;28;19920;-70
2022/12/11 05:46:59;;;;;;;;;;;2.00;99.90;;;;;;5073917;28;19989;-70
2022/12/11 05:49:25;;;;;;;;;;;2.10;99.90;;;;;;5092801;28;19946;-70
2022/12/11 05:51:50;;;;;;;;;;;;;;;;;;5077279;28;19921;-71
2022/12/11 05:54:16;;;;;;;;;;;;;;;;;;5094184;28;19920;-71
2022/12/11 05:56:42;;;;;;;;;;;;;;;;;;5108939;28;19919;-71
2022/12/11 05:59:08;;;;;;;;;;;1.80;99.90;;;;;;5115723;28;20047;-71
2022/12/11 06:01:37;;;;;;;;;;;1.90;99.90;;;;;;5096996;28;20050;-70
2022/12/11 06:04:04;;;;;;;;;;;2.00;99.90;;;;;;5096713;28;20374;-70
2022/12/11 06:06:30;;;;;;;;;;;2.00;99.90;;;;;;5115298;28;19920;-70
2022/12/11 06:08:56;;;;;;;;;;;2.10;99.90;;;;;;5115523;28;20400;-70
2022/12/11 06:11:22;;;;;;;;;;;2.10;99.90;;;;;;5100861;28;20074;-70
2022/12/11 06:13:48;;;;;;;;;;;;;;;;;;5094663;28;20411;-70
2022/12/11 06:16:14;;;;;;;;;;;;;;;;;;5075864;28;19924;-71
2022/12/11 06:18:40;;;;;;;;;;;;;;;;;;5076578;28;19989;-71
2022/12/11 06:21:14;;;;;;;;;;;1.90;99.90;;;;;;5076889;28;19986;-70
2022/12/11 06:23:40;;;;;;;;;;;;;;;;;;5094591;28;20410;-70
2022/12/11 06:26:06;;;;;;;;;;;;;;;;;;5075890;28;19928;-70
2022/12/11 06:28:32;;;;;;;;;;;;;;;;;;5094864;28;19955;-70
2022/12/11 06:30:58;;;;;;;;;;;1.70;99.90;;;;;;5068544;28;20409;-70
2022/12/11 06:33:24;;;;;;;;;;;1.90;99.90;;;;;;5096569;28;20015;-70
2022/12/11 06:35:50;;;;;;;;;;;;;;;;;;5095818;28;19942;-70
2022/12/11 06:38:16;;;;;;;;;;;2.10;99.90;;;;;;5114688;28;19923;-70
2022/12/11 06:40:41;;;;;;;;;;;2.10;99.90;;;;;;5114975;28;19966;-71
2022/12/11 06:43:07;;;;;;;;;;;;;;;;;;5114588;28;20006;-70
2022/12/11 06:45:33;;;;;;;;;;;;;;;;;;5114034;28;19919;-70
2022/12/11 06:47:59;;;;;;;;;;;1.90;99.90;;;;;;5096448;28;19927;-71
2022/12/11 06:50:24;;;;;;;;;;;;;;;;;;5096376;28;19947;-70
2022/12/11 06:52:50;;;;;;;;;;;1.90;99.90;;;;;;5115582;28;20293;-71
2022/12/11 06:55:16;;;;;;;;;;;;;;;;;;5095854;28;19920;-70
2022/12/11 06:57:42;;;;;;;;;;;;;;;;;;5114701;28;20019;-70
2022/12/11 07:00:08;;;;;;;;;;;;;;;;;;5096182;28;20455;-70
2022/12/11 07:02:34;;;;;;;;;;;1.90;99.90;;;;;;5095436;28;20274;-70
2022/12/11 07:04:59;;;;;;;;;;;1.90;99.90;;;;;;5092701;28;19928;-71
2022/12/11 07:07:25;;;;;;;;;;;;;;;;;;5076349;28;19924;-73
2022/12/11 07:09:51;;;;;;;;;;;;;;;;;;5094077;28;19920;-71
2022/12/11 07:12:17;;;;;;;;;;;;;;;;;;5058954;28;19927;-70
2022/12/11 07:14:42;;;;;;;;;;;2.20;99.90;;;;;;5074824;28;19927;-69
2022/12/11 07:17:08;;;;;;;;;;;;;;;;;;5093438;28;19970;-70
2022/12/11 07:19:34;;;;;;;;;;;1.90;99.90;;;;;;5094871;28;20297;-69
2022/12/11 07:22:00;;;;;;;;;;;;;;;;;;5110664;28;19919;-69
2022/12/11 07:24:25;;;;;;;;;;;;;;;;;;5107579;28;19951;-70
2022/12/11 07:26:51;;;;;;;;;;;2.10;99.90;;;;;;5106649;28;20015;-70
2022/12/11 07:29:17;;;;;;;;;;;2.00;99.90;;;;;;5099239;28;19920;-70
2022/12/11 07:31:43;;;;;;;;;;;2.10;99.90;;;;;;5094860;28;19919;-70
2022/12/11 07:34:09;;;;;;;;;;;;;;;;;;5094071;28;20422;-70
2022/12/11 07:36:35;;;;;;;;;;;;;;;;;;5094761;28;20446;-70
2022/12/11 07:39:01;;;;;;;;;;;;;;;;;;5078152;28;19924;-70
2022/12/11 07:41:27;;;;;;;;;;;;;;;;;;5103274;28;19920;-70
2022/12/11 07:43:53;;;;;;;;;;;;;;;;;;5092606;28;19920;-70
2022/12/11 07:46:19;;;;;;;;;;;;;;;;;;5094601;28;19927;-70
2022/12/11 07:48:45;;;;;;;;;;;2.00;99.90;;;;;;5113142;28;19924;-70
2022/12/11 07:51:11;;;;;;;;;;;;;;;;;;5112450;28;20117;-70
2022/12/11 07:53:37;;;;;;;;;;;;;;;;;;5113058;28;19920;-70
2022/12/11 07:56:03;;;;;;;;;;;2.00;99.90;;;;;;5111972;28;19920;-69
2022/12/11 07:58:29;;;;;;;;;;;;;;;;;;5075386;28;19931;-70
2022/12/11 08:00:55;;;;;;;;;;;2.00;99.90;;;;;;5095939;28;19966;-70
2022/12/11 08:03:20;;;;;;;;;;;;;;;;;;5080315;28;19920;-70
2022/12/11 08:05:46;;;;;;;;;;;;;;;;;;5102637;28;19973;-70
2022/12/11 08:08:12;;;;;;;;;;;;;;;;;;5092462;28;19920;-70
2022/12/11 08:10:38;;;;;;;;;;;1.80;99.90;;;;;;5092573;28;19925;-71
2022/12/11 08:13:03;;;;;;;;;;;2.00;99.90;;;;;;5099968;28;19945;-71
2022/12/11 08:15:29;;;;;;;;;;;;;;;;;;5075175;28;19920;-71
2022/12/11 08:17:55;;;;;;;;;;;;;;;;;;5063532;28;19981;-70
2022/12/11 08:20:21;;;;;;;;;;;;;;;;;;5112209;28;19955;-70
2022/12/11 08:22:47;;;;;;;;;;;;;;;;;;5094303;28;20007;-70
2022/12/11 08:25:12;;;;;;;;;;;2.00;99.90;;;;;;5093659;28;20368;-69
2022/12/11 08:27:38;;;;;;;;;;;1.90;99.90;;;;;;5093904;28;20385;-70
2022/12/11 08:30:04;;;;;;;;;;;;;;;;;;5091765;28;19927;-71
2022/12/11 08:32:30;;;;;;;;;;;;;;;;;;5088420;28;19956;-71
2022/12/11 08:34:56;;;;;;;;;;;;;;;;;;5098263;28;19924;-71
2022/12/11 08:37:22;;;;;;;;;;;;;;;;;;5088911;28;19955;-71
2022/12/11 08:39:47;;;;;;;;;;;2.00;99.90;;;;;;5094406;28;19927;-71
2022/12/11 08:42:13;;;;;;;;;;;2.30;99.90;;;;;;5112178;28;19920;-70
2022/12/11 08:44:39;;;;;;;;;;;;;;;;;;5096839;28;20393;-70
2022/12/11 08:47:05;;;;;;;;;;;;;;;;;;5073553;28;19931;-70
2022/12/11 08:49:31;;;;;;;;;;;;;;;;;;5073609;28;19927;-70
2022/12/11 08:51:56;;;;;;;;;;;2.00;99.90;;;;;;5074309;28;20321;-71
2022/12/11 08:54:22;;;;;;;;;;;2.30;99.90;;;;;;5074342;28;19920;-70
2022/12/11 08:56:48;;;;;;;;;;;;;;;;;;5084895;28;20290;-70
2022/12/11 08:59:14;;;;;;;;;;;;;;;;;;5085388;28;19924;-70
2022/12/11 09:01:39;;;;;;;;;;;2.00;99.90;;;;;;5095336;28;20385;-70
2022/12/11 09:04:05;;;;;;;;;;;;;;;;;;5076943;28;19931;-70
2022/12/11 09:06:31;;;;;;;;;;;;;;;;;;5095704;28;20562;-71
2022/12/11 09:08:57;;;;;;;;;;;;;;;;;;5095767;28;19963;-71
2022/12/11 09:11:23;;;;;;;;;;;;;;;;;;5106874;28;19963;-70
2022/12/11 09:13:49;;;;;;;;;;;;;;;;;;5118585;28;20006;-70
2022/12/11 09:16:15;;;;;;;;;;;;;;;;;;5112681;28;19977;-70
2022/12/11 09:18:41;;;;;;;;;;;;;;;;;;5091647;28;20450;-70
2022/12/11 09:21:07;;;;;;;;;;;;;;;;;;5097555;28;19923;-70
2022/12/11 09:23:33;;;;;;;;;;;;;;;;;;5088242;28;19924;-70
2022/12/11 09:25:59;;;;;;;;;;;;;;;;;;5118599;27;19985;-70
2022/12/11 09:28:25;;;;;;;;;;;;;;;;;;5098789;27;20361;-70
2022/12/11 09:30:50;;;;;;;;;;;2.30;99.90;;;;;;5104833;27;19952;-70
2022/12/11 09:33:16;;;;;;;;;;;2.30;99.90;;;;;;5105542;27;19923;-71
2022/12/11 09:35:42;;;;;;;;;;;;;;;;;;5098376;27;19920;-69
2022/12/11 09:38:08;;;;;;;;;;;2.40;99.90;;;;;;5115265;27;19953;-69
2022/12/11 09:40:38;;;;;;;;;;;2.40;99.90;;;;;;5122719;27;19919;-69
2022/12/11 09:43:13;;;;;;;;;;;2.30;99.90;;;;;;5118404;27;20346;-69
2022/12/11 09:45:39;;;;;;;;;;;2.40;99.90;;;;;;5093179;27;19920;-70
2022/12/11 09:48:06;;;;;;;;;;;2.40;99.90;;;;;;5075053;28;19992;-70
2022/12/11 09:50:32;;;;;;;;;;;2.40;99.90;;;;;;5075610;27;19920;-70
2022/12/11 09:53:12;;;;;;;;;;;2.60;99.90;;;;;;5113697;27;20297;-70
2022/12/11 09:55:46;;;;;;;;;;;2.30;99.90;;;;;;5094332;27;20414;-70
2022/12/11 09:58:19;;;;;;;;;;;2.30;99.90;;;;;;5097904;27;19923;-69
2022/12/11 10:00:52;;;;;;;;;;;2.30;99.90;;;;;;5091192;27;20768;-70
2022/12/11 10:03:18;;;;;;;;;;;2.20;99.90;;;;;;5112276;27;20413;-70
2022/12/11 10:06:08;;;;;;;;;;;2.40;99.90;;;;;;5115212;27;20040;-70
2022/12/11 10:08:33;;;;;;;;;;;2.30;99.90;;;;;;5116150;27;20454;-70
2022/12/11 10:11:05;;;;;;;;;;;2.40;99.90;;;;;;5112918;27;19920;-70
2022/12/11 10:13:30;;;;;;;;;;;2.30;99.90;;;;;;5102306;28;19924;-71
2022/12/11 10:15:59;;;;;;;;;;;2.30;99.90;;;;;;5105969;28;19919;-70
2022/12/11 10:18:26;;;;;;;;;;;2.40;99.90;;;;;;5102653;28;19938;-70
2022/12/11 10:20:52;;;;;;;;;;;2.50;99.90;;;;;;5086265;28;19962;-70
2022/12/11 10:23:26;;;;;;;;;;;2.40;99.90;;;;;;5084416;28;20388;-70
2022/12/11 10:26:11;;;;;;;;;;;2.40;99.90;;;;;;5081665;28;19930;-70
2022/12/11 10:28:37;;;;;;;;;;;2.60;99.90;;;;;;5069622;28;19920;-70
2022/12/11 10:31:02;;;;;;;;;;;2.40;99.90;;;;;;5102813;28;19966;-70
2022/12/11 10:33:36;;;;;;;;;;;2.70;99.90;;;;;;5085594;28;20011;-70
2022/12/11 10:36:03;;;;;;;;;;;2.50;99.90;;;;;;5086147;28;19920;-70
2022/12/11 10:38:41;;;;;;;;;;;2.70;99.90;;;;;;5114100;28;19924;-70
2022/12/11 10:41:11;;;;;;;;;;;2.60;99.90;;;;;;5101847;28;19974;-70
2022/12/11 10:43:41;;;;;;;;;;;2.70;99.90;;;;;;5104414;28;20438;-70
2022/12/11 10:46:13;;;;;;;;;;;2.40;99.90;;;;;;5085595;28;19920;-70
2022/12/11 10:49:08;;;;;;;;;;;2.60;99.90;;;;;;5078231;28;20007;-70
2022/12/11 10:51:34;;;;;;;;;;;2.60;99.90;;;;;;5063481;28;19974;-69
2022/12/11 10:54:01;;;;;;;;;;;;;;;;;;5074929;28;19920;-69
2022/12/11 10:56:27;;;;;;;;;;;2.60;99.90;;;;;;5101444;28;19920;-69
2022/12/11 10:58:53;;;;;;;;;;;2.90;99.90;;;;;;5122850;27;20373;-70
2022/12/11 11:01:20;;;;;;;;;;;2.90;99.90;;;;;;5095428;28;19920;-72
2022/12/11 11:03:54;;;;;;;;;;;2.80;99.90;;;;;;5108085;27;19919;-70
2022/12/11 11:06:20;;;;;;;;;;;2.90;99.90;;;;;;5096523;27;19968;-69
2022/12/11 11:08:50;;;;;;;;;;;2.80;99.90;;;;;;5099238;27;19928;-70
2022/12/11 11:11:21;;;;;;;;;;;2.70;99.90;;;;;;5099643;28;20355;-70
2022/12/11 11:13:47;;;;;;;;;;;2.70;99.90;;;;;;5096261;27;19980;-73
2022/12/11 11:16:14;;;;;;;;;;;2.80;99.90;;;;;;5100883;27;19928;-71
2022/12/11 11:18:40;;;;;;;;;;;2.50;99.90;;;;;;5118892;27;20195;-72
2022/12/11 11:21:14;;;;;;;;;;;2.70;99.90;;;;;;5117735;27;20276;-73
2022/12/11 11:23:40;;;;;;;;;;;2.50;99.90;;;;;;5118505;27;19923;-72
2022/12/11 11:26:10;;;;;;;;;;;2.90;99.90;;;;;;5110383;27;19920;-72
2022/12/11 11:28:36;;;;;;;;;;;;;;;;;;5116307;27;20355;-73
2022/12/11 11:31:01;;;;;;;;;;;;;;;;;;5102233;27;20003;-76
2022/12/11 11:33:36;;;;;;;;;;;2.70;99.90;;;;;;5109047;27;19924;-71
2022/12/11 11:36:06;;;;;;;;;;;2.90;99.90;;;;;;5098773;27;19949;-73
2022/12/11 11:38:33;;;;;;;;;;;2.90;99.90;;;;;;5119689;27;19928;-71
2022/12/11 11:41:05;;;;;;;;;;;2.80;99.90;;;;;;5107326;27;19924;-72
2022/12/11 11:43:49;;;;;;;;;;;2.60;99.90;;;;;;5109793;28;19963;-72
2022/12/11 11:46:35;;;;;;;;;;;2.80;99.90;;;;;;5091006;28;19935;-73
2022/12/11 11:49:23;;;;;;;;;;;2.70;99.90;;;;;;5110023;28;19924;-71
2022/12/11 11:51:51;;;;;;;;;;;2.80;99.90;;;;;;5078158;28;19920;-74
2022/12/11 11:54:22;;;;;;;;;;;2.90;99.90;;;;;;5077475;28;20369;-72
2022/12/11 11:56:50;;;;;;;;;;;3.00;99.90;;;;;;5113249;28;20377;-73
2022/12/11 11:59:28;;;;;;;;;;;2.80;99.90;;;;;;5113455;28;19924;-72
2022/12/11 12:01:54;;;;;;;;;;;3.00;99.90;;;;;;5078364;28;19919;-73
2022/12/11 12:04:20;;;;;;;;;;;2.70;99.90;;;;;;5109461;28;19920;-72
2022/12/11 12:06:54;;;;;;;;;;;2.70;99.90;;;;;;5107609;28;19928;-72
2022/12/11 12:09:26;;;;;;;;;;;2.80;99.90;;;;;;5098730;28;20353;-72
2022/12/11 12:12:04;;;;;;;;;;;2.90;99.90;;;;;;5103438;28;20327;-73
2022/12/11 12:14:42;;;;;;;;;;;2.80;99.90;;;;;;5079256;28;19973;-72
2022/12/11 12:17:08;;;;;;;;;;;;;;;;;;5074739;28;19965;-71
2022/12/11 12:19:37;;;;;;;;;;;2.90;99.90;;;;;;5088468;28;19920;-72
2022/12/11 12:22:23;;;;;;;;;;;3.00;99.90;;;;;;5074632;28;20301;-72
2022/12/11 12:24:58;;;;;;;;;;;2.80;99.90;;;;;;5032828;28;19924;-72
2022/12/11 12:27:30;;;;;;;;;;;3.00;99.90;;;;;;5074417;28;19924;-72
2022/12/11 12:30:06;;;;;;;;;;;3.20;99.90;;;;;;5092533;28;19920;-73
2022/12/11 12:32:47;;;;;;;;;;;3.00;99.90;;;;;;5093313;28;19920;-72
2022/12/11 12:35:15;;;;;;;;;;;;;;;;;;5093554;28;19927;-73
2022/12/11 12:37:44;;;;;;;;;;;;;;;;;;5111040;28;19993;-75
2022/12/11 12:40:10;;;;;;;;;;;;;;;;;;5094459;28;19976;-71
2022/12/11 12:42:44;;;;;;;;;;;3.00;99.90;;;;;;5111213;28;20358;-73
2022/12/11 12:45:10;;;;;;;;;;;;;;;;;;5102027;28;20281;-72
2022/12/11 12:47:36;;;;;;;;;;;2.90;99.90;;;;;;5106466;28;19973;-72
2022/12/11 12:50:02;;;;;;;;;;;3.00;99.90;;;;;;5105453;28;19989;-72
2022/12/11 12:52:32;;;;;;;;;;;2.90;99.90;;;;;;5104329;28;19927;-72
2022/12/11 12:55:15;;;;;;;;;;;3.00;99.90;;;;;;5092416;28;19920;-73
2022/12/11 12:57:43;;;;;;;;;;;3.00;99.90;;;;;;5095165;28;19924;-72
2022/12/11 13:00:11;;;;;;;;;;;3.10;99.90;;;;;;5105824;28;20393;-72
2022/12/11 13:02:57;;;;;;;;;;;3.20;99.90;;;;;;5096761;28;19932;-72
2022/12/11 13:05:27;;;;;;;;;;;3.10;99.90;;;;;;5060594;28;19924;-73
2022/12/11 13:07:55;;;;;;;;;;;3.00;99.90;;;;;;5061918;28;20384;-72
2022/12/11 13:10:26;;;;;;;;;;;3.20;99.90;;;;;;5062103;28;19962;-75
2022/12/11 13:12:52;;;;;;;;;;;3.20;99.90;;;;;;5065375;28;19927;-71
2022/12/11 13:15:41;;;;;;;;;;;3.00;99.90;;;;;;5098027;28;19920;-73
2022/12/11 13:18:26;;;;;;;;;;;2.90;99.90;;;;;;5098358;28;20416;-73
2022/12/11 13:20:55;;;;;;;;;;;;;;;;;;5081344;28;19924;-72
2022/12/11 13:23:27;;;;;;;;;;;2.80;99.90;;;;;;5108385;28;19978;-71
2022/12/11 13:25:54;;;;;;;;;;;2.90;99.90;;;;;;5115287;28;19926;-72
2022/12/11 13:28:20;;;;;;;;;;;;;;;;;;5116025;28;19927;-73
2022/12/11 13:30:46;;;;;;;;;;;;;;;;;;5116266;28;20011;-72
2022/12/11 13:33:17;;;;;;;;;;;3.00;99.90;;;;;;5097749;28;20580;-69
2022/12/11 13:35:43;;;;;;;;;;;;;;;;;;5115510;28;19920;-69
2022/12/11 13:38:15;;;;;;;;;;;3.00;99.90;;;;;;5094159;28;19977;-70
2022/12/11 13:40:41;;;;;;;;;;;2.90;99.90;;;;;;5085952;28;19920;-71
2022/12/11 13:43:22;;;;;;;;;;;3.10;99.90;;;;;;5109403;28;20069;-69
2022/12/11 13:45:48;;;;;;;;;;;;;;;;;;5115129;28;20007;-70
2022/12/11 13:48:14;;;;;;;;;;;;;;;;;;5115785;28;19976;-70
2022/12/11 13:50:42;;;;;;;;;;;2.90;99.90;;;;;;5097320;28;20064;-70
2022/12/11 13:53:14;;;;;;;;;;;2.90;99.90;;;;;;5080106;28;20357;-70
2022/12/11 13:55:39;;;;;;;;;;;2.70;99.90;;;;;;5114619;28;20309;-70
2022/12/11 13:58:14;;;;;;;;;;;2.90;99.90;;;;;;5115666;28;19924;-70
2022/12/11 14:00:39;;;;;;;;;;;2.90;99.90;;;;;;5110132;28;19920;-70
2022/12/11 14:03:08;;;;;;;;;;;3.10;99.90;;;;;;5077163;28;19935;-70
2022/12/11 14:05:34;;;;;;;;;;;2.90;99.90;;;;;;5094187;28;20378;-70
2022/12/11 14:08:05;;;;;;;;;;;2.70;99.90;;;;;;5094648;28;20433;-71
2022/12/11 14:10:31;;;;;;;;;;;2.90;99.90;;;;;;5093869;28;20315;-70
2022/12/11 14:12:57;;;;;;;;;;;;;;;;;;5076257;28;20382;-71
2022/12/11 14:15:22;;;;;;;;;;;2.80;99.90;;;;;;5095172;28;19920;-70
2022/12/11 14:17:48;;;;;;;;;;;2.90;99.90;;;;;;5094641;28;20018;-71
2022/12/11 14:20:14;;;;;;;;;;;;;;;;;;5094651;28;19970;-71
2022/12/11 14:22:40;;;;;;;;;;;;;;;;;;5076409;28;19920;-70
2022/12/11 14:25:06;;;;;;;;;;;;;;;;;;5093906;28;19924;-70
2022/12/11 14:27:32;;;;;;;;;;;2.70;99.90;;;;;;5077138;28;20099;-70
2022/12/11 14:30:08;;;;;;;;;;;2.60;99.90;;;;;;5094412;28;19924;-70
2022/12/11 14:32:41;;;;;;;;;;;2.50;99.90;;;;;;5095177;28;19943;-70
2022/12/11 14:35:15;;;;;;;;;;;2.80;99.90;;;;;;5075560;28;19931;-70
2022/12/11 14:37:41;;;;;;;;;;;;;;;;;;5094815;28;19924;-70
2022/12/11 14:40:07;;;;;;;;;;;;;;;;;;5094227;28;19989;-70
2022/12/11 14:42:38;;;;;;;;;;;2.60;99.90;;;;;;5094162;28;20290;-70
2022/12/11 14:45:07;;;;;;;;;;;2.60;99.90;;;;;;5075276;28;19993;-70
2022/12/11 14:47:37;;;;;;;;;;;2.60;99.90;;;;;;5093983;28;19920;-70
2022/12/11 14:50:25;;;;;;;;;;;2.50;99.90;;;;;;5105345;28;20305;-71
2022/12/11 14:52:55;;;;;;;;;;;2.60;99.90;;;;;;5082552;28;19934;-71
2022/12/11 14:55:23;;;;;;;;;;;2.50;99.90;;;;;;5113653;28;19927;-70
2022/12/11 14:57:51;;;;;;;;;;;2.60;99.90;;;;;;5096025;28;19924;-70
2022/12/11 15:00:23;;;;;;;;;;;2.40;99.90;;;;;;5096148;28;20010;-70
2022/12/11 15:02:48;;;;;;;;;;;;;;;;;;5114149;28;19920;-70
2022/12/11 15:05:18;;;;;;;;;;;2.50;99.90;;;;;;5095034;28;19920;-70
2022/12/11 15:07:53;;;;;;;;;;;2.40;99.90;;;;;;5114283;28;20004;-70
2022/12/11 15:10:23;;;;;;;;;;;2.40;99.90;;;;;;5095743;28;19927;-70
2022/12/11 15:12:49;;;;;;;;;;;2.20;99.90;;;;;;5113816;28;19927;-70
2022/12/11 15:15:15;;;;;;;;;;;2.40;99.90;;;;;;5091750;28;20313;-70
2022/12/11 15:17:41;;;;;;;;;;;2.40;99.90;;;;;;5084164;28;19924;-70
2022/12/11 15:20:07;;;;;;;;;;;2.30;99.90;;;;;;5098237;28;19973;-70
2022/12/11 15:22:34;;;;;;;;;;;2.60;99.90;;;;;;5101383;28;20389;-70
2022/12/11 15:24:59;;;;;;;;;;;2.40;99.90;;;;;;5094158;28;20014;-70
2022/12/11 15:27:30;;;;;;;;;;;2.30;99.90;;;;;;5095627;28;20377;-70
2022/12/11 15:29:56;;;;;;;;;;;2.60;99.90;;;;;;5095866;28;20625;-70
2022/12/11 15:32:22;;;;;;;;;;;2.10;99.90;;;;;;5095889;28;19923;-70
2022/12/11 15:34:55;;;;;;;;;;;2.40;99.90;;;;;;5094714;28;19920;-70
2022/12/11 15:37:21;;;;;;;;;;;;;;;;;;5095625;28;19973;-70